sensor_id;sensor_type;location;lat;lon;timestamp;P1;durP1;ratioP1;P2;durP2;ratioP2
64033;SDS011;50280;49.864;8.638;2022-07-24T00:00:06;8.27;;;5.30;;
64033;SDS011;50280;49.864;8.638;2022-07-24T00:02:40;5.95;;;4.90;;
64033;SDS011;50280;49.864;8.638;2022-07-24T00:05:12;7.38;;;5.35;;
64033;SDS011;50280;49.864;8.638;2022-07-24T00:07:45;7.65;;;5.45;;
64033;SDS011;50280;49.864;8.638;2022-07-24T00:10:17;8.02;;;5.20;;
64033;SDS011;50280;49.864;8.638;2022-07-24T00:12:50;10.20;;;5.63;;
64033;SDS011;50280;49.864;8.638;2022-07-24T00:15:23;7.63;;;5.30;;
64033;SDS011;50280;49.864;8.638;2022-07-24T00:17:56;8.02;;;5.20;;
64033;SDS011;50280;49.864;8.638;2022-07-24T00:20:29;9.80;;;5.80;;
64033;SDS011;50280;49.864;8.638;2022-07-24T00:23:01;6.55;;;5.22;;
64033;SDS011;50280;49.864;8.638;2022-07-24T00:25:34;6.97;;;5.55;;
64033;SDS011;50280;49.864;8.638;2022-07-24T00:28:06;7.63;;;5.30;;
64033;SDS011;50280;49.864;8.638;2022-07-24T00:30:40;10.13;;;6.00;;
64033;SDS011;50280;49.864;8.638;2022-07-24T00:33:13;7.93;;;5.57;;
64033;SDS011;50280;49.864;8.638;2022-07-24T00:35:45;9.30;;;5.40;;
64033;SDS011;50280;49.864;8.638;2022-07-24T00:38:18;8.38;;;5.47;;
64033;SDS011;50280;49.864;8.638;2022-07-24T00:40:50;9.10;;;5.57;;
64033;SDS011;50280;49.864;8.638;2022-07-24T00:43:23;6.63;;;5.40;;
64033;SDS011;50280;49.864;8.638;2022-07-24T00:45:57;7.88;;;5.60;;
64033;SDS011;50280;49.864;8.638;2022-07-24T00:48:29;8.15;;;6.15;;
64033;SDS011;50280;49.864;8.638;2022-07-24T00:51:02;7.40;;;5.55;;
64033;SDS011;50280;49.864;8.638;2022-07-24T00:53:35;8.93;;;6.07;;
64033;SDS011;50280;49.864;8.638;2022-07-24T00:56:07;6.78;;;5.70;;
64033;SDS011;50280;49.864;8.638;2022-07-24T00:58:40;7.72;;;5.40;;
64033;SDS011;50280;49.864;8.638;2022-07-24T01:01:14;6.80;;;5.10;;
64033;SDS011;50280;49.864;8.638;2022-07-24T01:03:48;7.78;;;5.57;;
64033;SDS011;50280;49.864;8.638;2022-07-24T01:06:20;6.88;;;5.25;;
64033;SDS011;50280;49.864;8.638;2022-07-24T01:08:54;7.65;;;5.32;;
64033;SDS011;50280;49.864;8.638;2022-07-24T01:11:27;7.05;;;5.20;;
64033;SDS011;50280;49.864;8.638;2022-07-24T01:14:01;8.00;;;5.47;;
64033;SDS011;50280;49.864;8.638;2022-07-24T01:16:35;8.05;;;5.43;;
64033;SDS011;50280;49.864;8.638;2022-07-24T01:19:08;8.98;;;5.68;;
64033;SDS011;50280;49.864;8.638;2022-07-24T01:21:46;6.50;;;5.50;;
64033;SDS011;50280;49.864;8.638;2022-07-24T01:24:21;7.47;;;5.25;;
64033;SDS011;50280;49.864;8.638;2022-07-24T01:26:54;7.80;;;5.65;;
64033;SDS011;50280;49.864;8.638;2022-07-24T01:29:26;8.18;;;5.28;;
64033;SDS011;50280;49.864;8.638;2022-07-24T01:31:59;7.10;;;5.25;;
64033;SDS011;50280;49.864;8.638;2022-07-24T01:34:31;6.78;;;5.30;;
64033;SDS011;50280;49.864;8.638;2022-07-24T01:37:05;7.47;;;5.60;;
64033;SDS011;50280;49.864;8.638;2022-07-24T01:39:38;6.43;;;5.05;;
64033;SDS011;50280;49.864;8.638;2022-07-24T01:42:10;7.65;;;5.13;;
64033;SDS011;50280;49.864;8.638;2022-07-24T01:44:43;7.43;;;5.32;;
64033;SDS011;50280;49.864;8.638;2022-07-24T01:47:15;7.88;;;5.43;;
64033;SDS011;50280;49.864;8.638;2022-07-24T01:49:48;7.10;;;5.00;;
64033;SDS011;50280;49.864;8.638;2022-07-24T01:52:22;8.18;;;5.40;;
64033;SDS011;50280;49.864;8.638;2022-07-24T01:54:54;6.15;;;5.35;;
64033;SDS011;50280;49.864;8.638;2022-07-24T01:57:27;7.57;;;5.22;;
64033;SDS011;50280;49.864;8.638;2022-07-24T01:59:59;7.53;;;5.30;;
64033;SDS011;50280;49.864;8.638;2022-07-24T02:02:33;8.00;;;5.68;;
64033;SDS011;50280;49.864;8.638;2022-07-24T02:05:05;8.40;;;5.50;;
64033;SDS011;50280;49.864;8.638;2022-07-24T02:07:41;7.45;;;5.38;;
64033;SDS011;50280;49.864;8.638;2022-07-24T02:10:15;7.43;;;5.40;;
64033;SDS011;50280;49.864;8.638;2022-07-24T02:12:48;7.28;;;5.35;;
64033;SDS011;50280;49.864;8.638;2022-07-24T02:15:20;7.57;;;5.80;;
64033;SDS011;50280;49.864;8.638;2022-07-24T02:17:55;7.20;;;5.57;;
64033;SDS011;50280;49.864;8.638;2022-07-24T02:20:31;8.48;;;6.07;;
64033;SDS011;50280;49.864;8.638;2022-07-24T02:23:06;6.63;;;5.25;;
64033;SDS011;50280;49.864;8.638;2022-07-24T02:25:38;7.65;;;5.53;;
64033;SDS011;50280;49.864;8.638;2022-07-24T02:28:10;5.95;;;5.10;;
64033;SDS011;50280;49.864;8.638;2022-07-24T02:30:43;6.18;;;5.20;;
64033;SDS011;50280;49.864;8.638;2022-07-24T02:33:16;6.30;;;5.15;;
64033;SDS011;50280;49.864;8.638;2022-07-24T02:35:49;6.82;;;5.50;;
64033;SDS011;50280;49.864;8.638;2022-07-24T02:38:22;8.05;;;5.18;;
64033;SDS011;50280;49.864;8.638;2022-07-24T02:40:55;9.05;;;5.75;;
64033;SDS011;50280;49.864;8.638;2022-07-24T02:43:27;8.25;;;5.60;;
64033;SDS011;50280;49.864;8.638;2022-07-24T02:46:00;7.57;;;5.85;;
64033;SDS011;50280;49.864;8.638;2022-07-24T02:48:32;8.70;;;6.20;;
64033;SDS011;50280;49.864;8.638;2022-07-24T02:51:05;8.00;;;6.20;;
64033;SDS011;50280;49.864;8.638;2022-07-24T02:53:39;10.27;;;6.15;;
64033;SDS011;50280;49.864;8.638;2022-07-24T02:56:11;8.65;;;6.13;;
64033;SDS011;50280;49.864;8.638;2022-07-24T02:58:44;10.38;;;6.50;;
64033;SDS011;50280;49.864;8.638;2022-07-24T03:01:16;7.78;;;6.10;;
64033;SDS011;50280;49.864;8.638;2022-07-24T03:03:48;8.43;;;6.25;;
64033;SDS011;50280;49.864;8.638;2022-07-24T03:06:21;7.28;;;6.25;;
64033;SDS011;50280;49.864;8.638;2022-07-24T03:08:55;8.13;;;5.88;;
64033;SDS011;50280;49.864;8.638;2022-07-24T03:11:27;8.68;;;6.60;;
64033;SDS011;50280;49.864;8.638;2022-07-24T03:14:00;8.63;;;5.93;;
64033;SDS011;50280;49.864;8.638;2022-07-24T03:16:32;10.80;;;6.85;;
64033;SDS011;50280;49.864;8.638;2022-07-24T03:19:04;8.23;;;6.25;;
64033;SDS011;50280;49.864;8.638;2022-07-24T03:21:37;7.72;;;6.30;;
64033;SDS011;50280;49.864;8.638;2022-07-24T03:24:11;7.25;;;6.10;;
64033;SDS011;50280;49.864;8.638;2022-07-24T03:26:43;9.65;;;6.82;;
64033;SDS011;50280;49.864;8.638;2022-07-24T03:29:16;10.15;;;6.40;;
64033;SDS011;50280;49.864;8.638;2022-07-24T03:31:48;9.23;;;6.28;;
64033;SDS011;50280;49.864;8.638;2022-07-24T03:34:21;9.50;;;6.88;;
64033;SDS011;50280;49.864;8.638;2022-07-24T03:36:53;11.35;;;7.15;;
64033;SDS011;50280;49.864;8.638;2022-07-24T03:39:27;8.73;;;6.53;;
64033;SDS011;50280;49.864;8.638;2022-07-24T03:41:59;8.98;;;6.35;;
64033;SDS011;50280;49.864;8.638;2022-07-24T03:44:32;8.27;;;6.63;;
64033;SDS011;50280;49.864;8.638;2022-07-24T03:47:04;8.95;;;7.07;;
64033;SDS011;50280;49.864;8.638;2022-07-24T03:49:37;8.40;;;6.97;;
64033;SDS011;50280;49.864;8.638;2022-07-24T03:52:10;7.78;;;6.05;;
64033;SDS011;50280;49.864;8.638;2022-07-24T03:54:44;7.47;;;6.20;;
64033;SDS011;50280;49.864;8.638;2022-07-24T03:57:16;7.68;;;6.18;;
64033;SDS011;50280;49.864;8.638;2022-07-24T03:59:49;8.18;;;6.45;;
64033;SDS011;50280;49.864;8.638;2022-07-24T04:02:22;10.25;;;6.75;;
64033;SDS011;50280;49.864;8.638;2022-07-24T04:04:54;10.38;;;6.10;;
64033;SDS011;50280;49.864;8.638;2022-07-24T04:07:26;9.15;;;6.10;;
64033;SDS011;50280;49.864;8.638;2022-07-24T04:10:00;9.63;;;6.20;;
64033;SDS011;50280;49.864;8.638;2022-07-24T04:12:34;9.43;;;6.35;;
64033;SDS011;50280;49.864;8.638;2022-07-24T04:15:07;9.77;;;6.80;;
64033;SDS011;50280;49.864;8.638;2022-07-24T04:17:41;8.68;;;6.57;;
64033;SDS011;50280;49.864;8.638;2022-07-24T04:20:14;8.50;;;6.55;;
64033;SDS011;50280;49.864;8.638;2022-07-24T04:22:46;10.52;;;6.00;;
64033;SDS011;50280;49.864;8.638;2022-07-24T04:25:20;9.48;;;7.03;;
64033;SDS011;50280;49.864;8.638;2022-07-24T04:27:52;7.45;;;6.35;;
64033;SDS011;50280;49.864;8.638;2022-07-24T04:30:25;8.40;;;6.63;;
64033;SDS011;50280;49.864;8.638;2022-07-24T04:32:58;8.52;;;6.85;;
64033;SDS011;50280;49.864;8.638;2022-07-24T04:35:30;8.98;;;6.72;;
64033;SDS011;50280;49.864;8.638;2022-07-24T04:38:03;9.55;;;6.63;;
64033;SDS011;50280;49.864;8.638;2022-07-24T04:40:36;9.00;;;6.43;;
64033;SDS011;50280;49.864;8.638;2022-07-24T04:43:09;9.57;;;6.65;;
64033;SDS011;50280;49.864;8.638;2022-07-24T04:45:41;11.82;;;7.03;;
64033;SDS011;50280;49.864;8.638;2022-07-24T04:48:14;11.02;;;6.65;;
64033;SDS011;50280;49.864;8.638;2022-07-24T04:50:46;7.78;;;6.63;;
64033;SDS011;50280;49.864;8.638;2022-07-24T04:53:19;9.95;;;6.65;;
64033;SDS011;50280;49.864;8.638;2022-07-24T04:55:53;7.72;;;6.60;;
64033;SDS011;50280;49.864;8.638;2022-07-24T04:58:25;8.55;;;6.60;;
64033;SDS011;50280;49.864;8.638;2022-07-24T05:00:58;9.98;;;7.90;;
64033;SDS011;50280;49.864;8.638;2022-07-24T05:03:31;18.55;;;6.90;;
64033;SDS011;50280;49.864;8.638;2022-07-24T05:06:03;11.10;;;7.20;;
64033;SDS011;50280;49.864;8.638;2022-07-24T05:08:36;11.25;;;7.38;;
64033;SDS011;50280;49.864;8.638;2022-07-24T05:11:10;8.07;;;6.95;;
64033;SDS011;50280;49.864;8.638;2022-07-24T05:13:43;12.18;;;7.28;;
64033;SDS011;50280;49.864;8.638;2022-07-24T05:16:15;9.25;;;7.07;;
64033;SDS011;50280;49.864;8.638;2022-07-24T05:18:48;10.68;;;7.05;;
64033;SDS011;50280;49.864;8.638;2022-07-24T05:21:20;9.93;;;7.30;;
64033;SDS011;50280;49.864;8.638;2022-07-24T05:23:52;10.68;;;7.50;;
64033;SDS011;50280;49.864;8.638;2022-07-24T05:26:26;8.02;;;6.85;;
64033;SDS011;50280;49.864;8.638;2022-07-24T05:28:59;9.85;;;6.97;;
64033;SDS011;50280;49.864;8.638;2022-07-24T05:31:32;9.02;;;7.13;;
64033;SDS011;50280;49.864;8.638;2022-07-24T05:34:06;11.30;;;7.18;;
64033;SDS011;50280;49.864;8.638;2022-07-24T05:36:38;9.48;;;7.50;;
64033;SDS011;50280;49.864;8.638;2022-07-24T05:39:11;8.95;;;7.28;;
64033;SDS011;50280;49.864;8.638;2022-07-24T05:41:45;9.77;;;7.43;;
64033;SDS011;50280;49.864;8.638;2022-07-24T05:44:17;10.10;;;7.55;;
64033;SDS011;50280;49.864;8.638;2022-07-24T05:46:49;9.27;;;7.28;;
64033;SDS011;50280;49.864;8.638;2022-07-24T05:49:22;10.13;;;7.57;;
64033;SDS011;50280;49.864;8.638;2022-07-24T05:51:54;8.75;;;7.40;;
64033;SDS011;50280;49.864;8.638;2022-07-24T05:54:27;10.30;;;7.13;;
64033;SDS011;50280;49.864;8.638;2022-07-24T05:57:00;10.27;;;7.97;;
64033;SDS011;50280;49.864;8.638;2022-07-24T05:59:33;9.00;;;7.28;;
64033;SDS011;50280;49.864;8.638;2022-07-24T06:02:05;9.48;;;7.38;;
64033;SDS011;50280;49.864;8.638;2022-07-24T06:04:38;12.07;;;7.57;;
64033;SDS011;50280;49.864;8.638;2022-07-24T06:07:10;9.32;;;7.82;;
64033;SDS011;50280;49.864;8.638;2022-07-24T06:09:43;12.35;;;7.80;;
64033;SDS011;50280;49.864;8.638;2022-07-24T06:12:17;12.38;;;7.53;;
64033;SDS011;50280;49.864;8.638;2022-07-24T06:14:50;9.70;;;7.80;;
64033;SDS011;50280;49.864;8.638;2022-07-24T06:17:22;8.93;;;7.25;;
64033;SDS011;50280;49.864;8.638;2022-07-24T06:19:54;10.13;;;7.93;;
64033;SDS011;50280;49.864;8.638;2022-07-24T06:22:27;8.57;;;7.03;;
64033;SDS011;50280;49.864;8.638;2022-07-24T06:24:59;10.38;;;7.55;;
64033;SDS011;50280;49.864;8.638;2022-07-24T06:27:33;9.13;;;7.13;;
64033;SDS011;50280;49.864;8.638;2022-07-24T06:30:13;8.30;;;7.10;;
64033;SDS011;50280;49.864;8.638;2022-07-24T06:32:48;8.38;;;7.45;;
64033;SDS011;50280;49.864;8.638;2022-07-24T06:35:23;11.05;;;7.75;;
64033;SDS011;50280;49.864;8.638;2022-07-24T06:37:59;9.52;;;7.18;;
64033;SDS011;50280;49.864;8.638;2022-07-24T06:40:32;9.15;;;7.00;;
64033;SDS011;50280;49.864;8.638;2022-07-24T06:43:06;7.97;;;7.07;;
64033;SDS011;50280;49.864;8.638;2022-07-24T06:45:38;8.57;;;6.97;;
64033;SDS011;50280;49.864;8.638;2022-07-24T06:48:11;9.57;;;6.60;;
64033;SDS011;50280;49.864;8.638;2022-07-24T06:50:43;8.50;;;6.72;;
64033;SDS011;50280;49.864;8.638;2022-07-24T06:53:16;9.10;;;6.40;;
64033;SDS011;50280;49.864;8.638;2022-07-24T06:55:48;6.78;;;6.05;;
64033;SDS011;50280;49.864;8.638;2022-07-24T06:58:22;8.00;;;6.03;;
64033;SDS011;50280;49.864;8.638;2022-07-24T07:00:55;9.18;;;5.90;;
64033;SDS011;50280;49.864;8.638;2022-07-24T07:03:27;8.23;;;6.22;;
64033;SDS011;50280;49.864;8.638;2022-07-24T07:05:59;8.15;;;6.00;;
64033;SDS011;50280;49.864;8.638;2022-07-24T07:08:32;8.07;;;6.43;;
64033;SDS011;50280;49.864;8.638;2022-07-24T07:11:04;7.63;;;5.97;;
64033;SDS011;50280;49.864;8.638;2022-07-24T07:13:38;7.65;;;5.75;;
64033;SDS011;50280;49.864;8.638;2022-07-24T07:16:10;6.70;;;5.78;;
64033;SDS011;50280;49.864;8.638;2022-07-24T07:18:43;8.13;;;6.20;;
64033;SDS011;50280;49.864;8.638;2022-07-24T07:21:15;7.80;;;5.40;;
64033;SDS011;50280;49.864;8.638;2022-07-24T07:23:48;7.53;;;5.90;;
64033;SDS011;50280;49.864;8.638;2022-07-24T07:26:20;5.95;;;5.18;;
64033;SDS011;50280;49.864;8.638;2022-07-24T07:28:54;7.32;;;5.97;;
64033;SDS011;50280;49.864;8.638;2022-07-24T07:31:26;8.10;;;5.72;;
64033;SDS011;50280;49.864;8.638;2022-07-24T07:33:59;8.55;;;5.93;;
64033;SDS011;50280;49.864;8.638;2022-07-24T07:36:32;7.53;;;5.80;;
64033;SDS011;50280;49.864;8.638;2022-07-24T07:39:04;7.38;;;6.07;;
64033;SDS011;50280;49.864;8.638;2022-07-24T07:41:37;6.82;;;5.30;;
64033;SDS011;50280;49.864;8.638;2022-07-24T07:44:11;7.97;;;5.75;;
64033;SDS011;50280;49.864;8.638;2022-07-24T07:46:43;8.65;;;5.82;;
64033;SDS011;50280;49.864;8.638;2022-07-24T07:49:16;6.25;;;5.53;;
64033;SDS011;50280;49.864;8.638;2022-07-24T07:51:48;7.53;;;6.00;;
64033;SDS011;50280;49.864;8.638;2022-07-24T07:54:21;8.23;;;6.10;;
64033;SDS011;50280;49.864;8.638;2022-07-24T07:56:53;8.65;;;6.60;;
64033;SDS011;50280;49.864;8.638;2022-07-24T07:59:30;10.00;;;6.90;;
64033;SDS011;50280;49.864;8.638;2022-07-24T08:02:02;6.43;;;5.68;;
64033;SDS011;50280;49.864;8.638;2022-07-24T08:04:35;7.57;;;6.20;;
64033;SDS011;50280;49.864;8.638;2022-07-24T08:07:07;7.97;;;6.28;;
64033;SDS011;50280;49.864;8.638;2022-07-24T08:09:40;6.80;;;5.85;;
64033;SDS011;50280;49.864;8.638;2022-07-24T08:12:12;7.47;;;6.10;;
64033;SDS011;50280;49.864;8.638;2022-07-24T08:14:46;6.90;;;5.90;;
64033;SDS011;50280;49.864;8.638;2022-07-24T08:17:19;8.02;;;5.72;;
64033;SDS011;50280;49.864;8.638;2022-07-24T08:19:51;8.75;;;5.90;;
64033;SDS011;50280;49.864;8.638;2022-07-24T08:22:23;7.65;;;6.03;;
64033;SDS011;50280;49.864;8.638;2022-07-24T08:24:56;8.45;;;5.93;;
64033;SDS011;50280;49.864;8.638;2022-07-24T08:27:28;9.80;;;6.10;;
64033;SDS011;50280;49.864;8.638;2022-07-24T08:30:02;7.93;;;5.78;;
64033;SDS011;50280;49.864;8.638;2022-07-24T08:32:37;7.43;;;5.43;;
64033;SDS011;50280;49.864;8.638;2022-07-24T08:35:10;7.03;;;6.05;;
64033;SDS011;50280;49.864;8.638;2022-07-24T08:37:44;6.57;;;5.22;;
64033;SDS011;50280;49.864;8.638;2022-07-24T08:40:16;7.45;;;5.40;;
64033;SDS011;50280;49.864;8.638;2022-07-24T08:42:49;8.27;;;5.80;;
64033;SDS011;50280;49.864;8.638;2022-07-24T08:45:23;8.02;;;5.18;;
64033;SDS011;50280;49.864;8.638;2022-07-24T08:47:56;7.00;;;5.43;;
64033;SDS011;50280;49.864;8.638;2022-07-24T08:50:28;6.82;;;5.50;;
64033;SDS011;50280;49.864;8.638;2022-07-24T08:53:03;5.82;;;5.15;;
64033;SDS011;50280;49.864;8.638;2022-07-24T08:55:37;6.30;;;5.45;;
64033;SDS011;50280;49.864;8.638;2022-07-24T08:58:10;7.35;;;5.63;;
64033;SDS011;50280;49.864;8.638;2022-07-24T09:00:46;6.25;;;5.43;;
64033;SDS011;50280;49.864;8.638;2022-07-24T09:03:19;6.30;;;5.70;;
64033;SDS011;50280;49.864;8.638;2022-07-24T09:05:51;7.70;;;5.70;;
64033;SDS011;50280;49.864;8.638;2022-07-24T09:08:26;6.28;;;5.47;;
64033;SDS011;50280;49.864;8.638;2022-07-24T09:11:00;7.13;;;5.53;;
64033;SDS011;50280;49.864;8.638;2022-07-24T09:13:35;6.22;;;5.32;;
64033;SDS011;50280;49.864;8.638;2022-07-24T09:16:10;8.23;;;5.50;;
64033;SDS011;50280;49.864;8.638;2022-07-24T09:18:51;8.02;;;5.78;;
64033;SDS011;50280;49.864;8.638;2022-07-24T09:21:37;7.50;;;5.88;;
64033;SDS011;50280;49.864;8.638;2022-07-24T09:24:14;7.43;;;5.43;;
64033;SDS011;50280;49.864;8.638;2022-07-24T09:26:50;9.07;;;6.15;;
64033;SDS011;50280;49.864;8.638;2022-07-24T09:29:27;6.90;;;5.57;;
64033;SDS011;50280;49.864;8.638;2022-07-24T09:32:01;9.05;;;6.00;;
64033;SDS011;50280;49.864;8.638;2022-07-24T09:34:37;6.80;;;5.68;;
64033;SDS011;50280;49.864;8.638;2022-07-24T09:37:12;7.30;;;5.80;;
64033;SDS011;50280;49.864;8.638;2022-07-24T09:39:45;8.30;;;5.90;;
64033;SDS011;50280;49.864;8.638;2022-07-24T09:42:18;7.15;;;6.18;;
64033;SDS011;50280;49.864;8.638;2022-07-24T09:45:02;10.30;;;8.40;;
64033;SDS011;50280;49.864;8.638;2022-07-24T09:47:38;7.78;;;5.85;;
64033;SDS011;50280;49.864;8.638;2022-07-24T09:50:13;7.25;;;5.90;;
64033;SDS011;50280;49.864;8.638;2022-07-24T09:52:48;7.90;;;6.78;;
64033;SDS011;50280;49.864;8.638;2022-07-24T09:55:22;7.30;;;5.85;;
64033;SDS011;50280;49.864;8.638;2022-07-24T09:57:56;7.72;;;6.22;;
64033;SDS011;50280;49.864;8.638;2022-07-24T10:00:30;7.88;;;6.10;;
64033;SDS011;50280;49.864;8.638;2022-07-24T10:03:05;7.00;;;5.55;;
64033;SDS011;50280;49.864;8.638;2022-07-24T10:05:47;7.05;;;5.90;;
64033;SDS011;50280;49.864;8.638;2022-07-24T10:08:27;9.80;;;6.00;;
64033;SDS011;50280;49.864;8.638;2022-07-24T10:11:01;8.60;;;5.75;;
64033;SDS011;50280;49.864;8.638;2022-07-24T10:13:36;7.68;;;5.68;;
64033;SDS011;50280;49.864;8.638;2022-07-24T10:16:22;7.35;;;6.13;;
64033;SDS011;50280;49.864;8.638;2022-07-24T10:19:03;6.20;;;5.60;;
64033;SDS011;50280;49.864;8.638;2022-07-24T10:21:37;8.02;;;5.95;;
64033;SDS011;50280;49.864;8.638;2022-07-24T10:24:35;7.80;;;6.78;;
64033;SDS011;50280;49.864;8.638;2022-07-24T10:27:29;7.45;;;6.45;;
64033;SDS011;50280;49.864;8.638;2022-07-24T10:30:04;8.23;;;6.50;;
64033;SDS011;50280;49.864;8.638;2022-07-24T10:32:42;8.15;;;6.20;;
64033;SDS011;50280;49.864;8.638;2022-07-24T10:35:21;7.15;;;6.40;;
64033;SDS011;50280;49.864;8.638;2022-07-24T10:38:00;7.57;;;5.93;;
64033;SDS011;50280;49.864;8.638;2022-07-24T10:40:46;9.63;;;8.00;;
64033;SDS011;50280;49.864;8.638;2022-07-24T10:43:23;7.43;;;6.40;;
64033;SDS011;50280;49.864;8.638;2022-07-24T10:46:11;8.33;;;7.00;;
64033;SDS011;50280;49.864;8.638;2022-07-24T10:48:44;8.65;;;6.40;;
64033;SDS011;50280;49.864;8.638;2022-07-24T10:51:18;10.07;;;7.03;;
64033;SDS011;50280;49.864;8.638;2022-07-24T10:53:51;9.27;;;6.70;;
64033;SDS011;50280;49.864;8.638;2022-07-24T10:56:28;7.88;;;6.50;;
64033;SDS011;50280;49.864;8.638;2022-07-24T10:59:11;9.88;;;6.70;;
64033;SDS011;50280;49.864;8.638;2022-07-24T11:01:45;9.32;;;6.85;;
64033;SDS011;50280;49.864;8.638;2022-07-24T11:04:24;7.93;;;6.63;;
64033;SDS011;50280;49.864;8.638;2022-07-24T11:07:08;8.38;;;6.75;;
64033;SDS011;50280;49.864;8.638;2022-07-24T11:09:53;8.05;;;6.60;;
64033;SDS011;50280;49.864;8.638;2022-07-24T11:12:31;7.95;;;7.15;;
64033;SDS011;50280;49.864;8.638;2022-07-24T11:15:12;8.02;;;6.68;;
64033;SDS011;50280;49.864;8.638;2022-07-24T11:17:45;7.93;;;7.05;;
64033;SDS011;50280;49.864;8.638;2022-07-24T11:20:20;10.07;;;7.20;;
64033;SDS011;50280;49.864;8.638;2022-07-24T11:22:55;8.65;;;7.05;;
64033;SDS011;50280;49.864;8.638;2022-07-24T11:25:28;8.85;;;7.15;;
64033;SDS011;50280;49.864;8.638;2022-07-24T11:28:11;11.23;;;7.05;;
64033;SDS011;50280;49.864;8.638;2022-07-24T11:30:45;10.27;;;6.75;;
64033;SDS011;50280;49.864;8.638;2022-07-24T11:33:20;9.80;;;7.13;;
64033;SDS011;50280;49.864;8.638;2022-07-24T11:35:53;7.68;;;6.88;;
64033;SDS011;50280;49.864;8.638;2022-07-24T11:38:28;7.55;;;6.75;;
64033;SDS011;50280;49.864;8.638;2022-07-24T11:41:04;10.02;;;7.35;;
64033;SDS011;50280;49.864;8.638;2022-07-24T11:43:49;7.70;;;6.80;;
64033;SDS011;50280;49.864;8.638;2022-07-24T11:46:32;9.68;;;7.13;;
64033;SDS011;50280;49.864;8.638;2022-07-24T11:49:06;8.60;;;6.93;;
64033;SDS011;50280;49.864;8.638;2022-07-24T11:51:41;9.52;;;6.78;;
64033;SDS011;50280;49.864;8.638;2022-07-24T11:54:20;9.13;;;6.80;;
64033;SDS011;50280;49.864;8.638;2022-07-24T11:56:56;6.95;;;6.10;;
64033;SDS011;50280;49.864;8.638;2022-07-24T11:59:29;11.50;;;6.30;;
64033;SDS011;50280;49.864;8.638;2022-07-24T12:02:07;7.45;;;5.72;;
64033;SDS011;50280;49.864;8.638;2022-07-24T12:04:42;6.65;;;5.97;;
64033;SDS011;50280;49.864;8.638;2022-07-24T12:07:18;8.07;;;7.10;;
64033;SDS011;50280;49.864;8.638;2022-07-24T12:09:56;8.02;;;7.20;;
64033;SDS011;50280;49.864;8.638;2022-07-24T12:12:32;6.82;;;5.90;;
64033;SDS011;50280;49.864;8.638;2022-07-24T12:15:10;7.83;;;6.43;;
64033;SDS011;50280;49.864;8.638;2022-07-24T12:17:53;7.72;;;6.47;;
64033;SDS011;50280;49.864;8.638;2022-07-24T12:20:30;7.05;;;6.35;;
64033;SDS011;50280;49.864;8.638;2022-07-24T12:23:07;7.43;;;6.10;;
64033;SDS011;50280;49.864;8.638;2022-07-24T12:28:18;7.35;;;6.65;;
64033;SDS011;50280;49.864;8.638;2022-07-24T12:30:51;7.03;;;6.30;;
64033;SDS011;50280;49.864;8.638;2022-07-24T12:33:26;9.07;;;6.25;;
64033;SDS011;50280;49.864;8.638;2022-07-24T12:36:00;6.97;;;6.28;;
64033;SDS011;50280;49.864;8.638;2022-07-24T12:38:36;11.05;;;6.80;;
64033;SDS011;50280;49.864;8.638;2022-07-24T12:41:13;7.50;;;6.80;;
64033;SDS011;50280;49.864;8.638;2022-07-24T12:43:50;9.02;;;7.00;;
64033;SDS011;50280;49.864;8.638;2022-07-24T12:46:29;8.55;;;6.60;;
64033;SDS011;50280;49.864;8.638;2022-07-24T12:49:05;8.70;;;6.90;;
64033;SDS011;50280;49.864;8.638;2022-07-24T12:51:44;6.78;;;6.07;;
64033;SDS011;50280;49.864;8.638;2022-07-24T12:54:23;6.45;;;5.80;;
64033;SDS011;50280;49.864;8.638;2022-07-24T12:57:01;7.28;;;6.18;;
64033;SDS011;50280;49.864;8.638;2022-07-24T12:59:41;7.18;;;6.05;;
64033;SDS011;50280;49.864;8.638;2022-07-24T13:02:17;7.63;;;5.82;;
64033;SDS011;50280;49.864;8.638;2022-07-24T13:04:53;6.18;;;5.57;;
64033;SDS011;50280;49.864;8.638;2022-07-24T13:07:28;6.30;;;5.50;;
64033;SDS011;50280;49.864;8.638;2022-07-24T13:10:00;7.25;;;5.85;;
64033;SDS011;50280;49.864;8.638;2022-07-24T13:12:34;6.93;;;5.43;;
64033;SDS011;50280;49.864;8.638;2022-07-24T13:15:07;7.70;;;5.85;;
64033;SDS011;50280;49.864;8.638;2022-07-24T13:17:41;8.02;;;6.18;;
64033;SDS011;50280;49.864;8.638;2022-07-24T13:20:13;7.20;;;6.50;;
64033;SDS011;50280;49.864;8.638;2022-07-24T13:22:45;9.88;;;5.65;;
64033;SDS011;50280;49.864;8.638;2022-07-24T13:25:18;6.53;;;5.80;;
64033;SDS011;50280;49.864;8.638;2022-07-24T13:27:52;6.70;;;5.80;;
64033;SDS011;50280;49.864;8.638;2022-07-24T13:30:24;9.18;;;6.50;;
64033;SDS011;50280;49.864;8.638;2022-07-24T13:32:56;7.07;;;5.90;;
64033;SDS011;50280;49.864;8.638;2022-07-24T13:35:29;7.40;;;6.40;;
64033;SDS011;50280;49.864;8.638;2022-07-24T13:38:01;6.30;;;5.60;;
64033;SDS011;50280;49.864;8.638;2022-07-24T13:40:34;6.55;;;5.95;;
64033;SDS011;50280;49.864;8.638;2022-07-24T13:43:08;7.30;;;6.30;;
64033;SDS011;50280;49.864;8.638;2022-07-24T13:45:40;7.40;;;5.72;;
64033;SDS011;50280;49.864;8.638;2022-07-24T13:48:13;6.60;;;5.90;;
64033;SDS011;50280;49.864;8.638;2022-07-24T13:50:45;6.60;;;6.00;;
64033;SDS011;50280;49.864;8.638;2022-07-24T13:53:18;6.88;;;6.18;;
64033;SDS011;50280;49.864;8.638;2022-07-24T13:55:50;9.88;;;6.65;;
64033;SDS011;50280;49.864;8.638;2022-07-24T13:58:24;7.70;;;6.07;;
64033;SDS011;50280;49.864;8.638;2022-07-24T14:00:56;7.63;;;6.32;;
64033;SDS011;50280;49.864;8.638;2022-07-24T14:03:29;8.82;;;6.00;;
64033;SDS011;50280;49.864;8.638;2022-07-24T14:06:02;9.20;;;6.18;;
64033;SDS011;50280;49.864;8.638;2022-07-24T14:08:35;7.68;;;6.28;;
64033;SDS011;50280;49.864;8.638;2022-07-24T14:11:09;6.90;;;6.20;;
64033;SDS011;50280;49.864;8.638;2022-07-24T14:13:43;6.75;;;5.80;;
64033;SDS011;50280;49.864;8.638;2022-07-24T14:16:15;6.60;;;6.00;;
64033;SDS011;50280;49.864;8.638;2022-07-24T14:18:48;7.43;;;6.70;;
64033;SDS011;50280;49.864;8.638;2022-07-24T14:21:20;6.88;;;6.15;;
64033;SDS011;50280;49.864;8.638;2022-07-24T14:23:53;7.68;;;6.82;;
64033;SDS011;50280;49.864;8.638;2022-07-24T14:26:25;7.65;;;6.63;;
64033;SDS011;50280;49.864;8.638;2022-07-24T14:28:59;7.82;;;7.00;;
64033;SDS011;50280;49.864;8.638;2022-07-24T14:31:31;7.40;;;6.00;;
64033;SDS011;50280;49.864;8.638;2022-07-24T14:34:04;7.10;;;6.00;;
64033;SDS011;50280;49.864;8.638;2022-07-24T14:36:36;6.82;;;6.10;;
64033;SDS011;50280;49.864;8.638;2022-07-24T14:39:09;7.03;;;6.32;;
64033;SDS011;50280;49.864;8.638;2022-07-24T14:41:42;7.13;;;6.43;;
64033;SDS011;50280;49.864;8.638;2022-07-24T14:44:16;7.45;;;6.57;;
64033;SDS011;50280;49.864;8.638;2022-07-24T14:46:48;7.03;;;6.32;;
64033;SDS011;50280;49.864;8.638;2022-07-24T14:49:21;7.95;;;6.75;;
64033;SDS011;50280;49.864;8.638;2022-07-24T14:51:53;7.72;;;6.35;;
64033;SDS011;50280;49.864;8.638;2022-07-24T14:54:26;7.13;;;6.40;;
64033;SDS011;50280;49.864;8.638;2022-07-24T14:56:58;8.02;;;6.88;;
64033;SDS011;50280;49.864;8.638;2022-07-24T14:59:32;7.30;;;6.60;;
64033;SDS011;50280;49.864;8.638;2022-07-24T15:02:05;7.20;;;6.50;;
64033;SDS011;50280;49.864;8.638;2022-07-24T15:04:39;7.47;;;6.70;;
64033;SDS011;50280;49.864;8.638;2022-07-24T15:07:12;7.78;;;6.97;;
64033;SDS011;50280;49.864;8.638;2022-07-24T15:09:45;7.55;;;6.78;;
64033;SDS011;50280;49.864;8.638;2022-07-24T15:12:17;8.00;;;6.93;;
64033;SDS011;50280;49.864;8.638;2022-07-24T15:14:51;7.20;;;6.43;;
64033;SDS011;50280;49.864;8.638;2022-07-24T15:17:23;7.47;;;6.68;;
64033;SDS011;50280;49.864;8.638;2022-07-24T15:19:56;10.18;;;6.55;;
64033;SDS011;50280;49.864;8.638;2022-07-24T15:22:28;7.32;;;6.22;;
64033;SDS011;50280;49.864;8.638;2022-07-24T15:25:01;7.75;;;6.50;;
64033;SDS011;50280;49.864;8.638;2022-07-24T15:27:33;7.55;;;6.68;;